Time;durP1;ratioP1;P1;durP2;ratioP2;P2;SDS_P1;SDS_P2;PMS_P1;PMS_P2;Temp;Humidity;BMP_temperature;BMP_pressure;BME280_temperature;BME280_humidity;BME280_pressure;Samples;Min_cycle;Max_cycle;Signal;HPM_P1;HPM_P2
2022/03/17 00:00:16;;;;;;;15.43;5.90;;;12.60;13.20;;;;;;4989673;28;20578;-72
2022/03/17 00:02:44;;;;;;;13.15;5.80;;;12.60;14.00;;;;;;4989238;28;20220;-72
2022/03/17 00:05:12;;;;;;;10.88;4.70;;;12.60;13.20;;;;;;4989961;28;20267;-71
2022/03/17 00:07:40;;;;;;;9.82;5.00;;;12.60;24.30;;;;;;4989399;28;20216;-71
2022/03/17 00:10:14;;;;;;;11.05;4.85;;;12.60;12.60;;;;;;4989489;28;20664;-71
2022/03/17 00:12:42;;;;;;;9.70;4.28;;;12.60;14.50;;;;;;4988895;28;20218;-71
2022/03/17 00:15:09;;;;;;;14.38;5.15;;;12.60;13.50;;;;;;4992177;28;20208;-72
2022/03/17 00:17:37;;;;;;;17.88;5.45;;;12.50;12.80;;;;;;4994402;28;20263;-71
2022/03/17 00:20:07;;;;;;;13.57;4.22;;;12.50;17.70;;;;;;4993957;28;20236;-72
2022/03/17 00:22:34;;;;;;;11.50;5.10;;;12.50;19.10;;;;;;4993876;28;20243;-71
2022/03/17 00:25:01;;;;;;;14.93;4.72;;;12.50;16.10;;;;;;4993534;28;20271;-74
2022/03/17 00:27:29;;;;;;;13.82;4.10;;;12.50;17.10;;;;;;4993157;28;20684;-72
2022/03/17 00:29:56;;;;;;;8.75;4.07;;;12.60;19.20;;;;;;4994391;28;20224;-72
2022/03/17 00:32:24;;;;;;;10.15;4.07;;;12.50;18.90;;;;;;4993495;28;20208;-74
2022/03/17 00:37:36;;;;;;;9.82;3.80;;;12.50;23.50;;;;;;4994875;28;20703;-77
2022/03/17 00:40:04;;;;;;;15.27;4.20;;;12.50;23.90;;;;;;4994275;28;20239;-77
2022/03/17 00:42:33;;;;;;;15.88;4.45;;;12.50;27.20;;;;;;4992998;28;20268;-72
2022/03/17 00:45:00;;;;;;;5.82;3.05;;;12.50;27.30;;;;;;4993443;28;20213;-75
2022/03/17 00:47:27;;;;;;;8.52;3.45;;;12.60;28.40;;;;;;4993024;28;20224;-73
2022/03/17 00:49:54;;;;;;;8.80;3.72;;;12.50;34.20;;;;;;4992045;28;22192;-78
2022/03/17 00:52:21;;;;;;;9.32;3.83;;;12.50;43.20;;;;;;4993372;28;20252;-78
2022/03/17 00:54:48;;;;;;;25.98;8.40;;;12.50;46.20;;;;;;4992617;28;20247;-72
2022/03/17 00:57:15;;;;;;;10.75;4.28;;;12.50;54.10;;;;;;4992635;28;20208;-77
2022/03/17 00:59:44;;;;;;;9.15;4.28;;;12.50;58.60;;;;;;4992803;28;20295;-73
2022/03/17 01:02:11;;;;;;;14.95;4.80;;;12.50;63.50;;;;;;4992646;28;20221;-71
2022/03/17 01:04:38;;;;;;;10.68;4.82;;;12.50;69.60;;;;;;4993328;28;20271;-74
2022/03/17 01:07:05;;;;;;;13.60;4.90;;;12.50;71.90;;;;;;4993074;28;20669;-71
2022/03/17 01:09:32;;;;;;;11.60;5.60;;;12.50;73.40;;;;;;4992335;28;20223;-75
2022/03/17 01:12:00;;;;;;;12.63;4.63;;;12.50;83.10;;;;;;4992450;28;20263;-72
2022/03/17 01:14:27;;;;;;;13.88;4.75;;;12.50;87.20;;;;;;4993359;28;20220;-75
2022/03/17 01:16:55;;;;;;;7.82;4.75;;;12.50;95.00;;;;;;4992318;28;20292;-75
2022/03/17 01:19:23;;;;;;;12.68;4.35;;;12.60;94.40;;;;;;4992483;28;20213;-73
2022/03/17 01:21:51;;;;;;;11.05;4.43;;;12.60;92.00;;;;;;4991705;28;20267;-71
2022/03/17 01:24:18;;;;;;;13.07;5.72;;;12.50;92.30;;;;;;4992206;28;20267;-72
2022/03/17 01:26:45;;;;;;;12.68;4.55;;;12.50;93.80;;;;;;4990763;28;20208;-74
2022/03/17 01:29:12;;;;;;;12.95;5.10;;;12.50;94.50;;;;;;4992806;28;20228;-75
2022/03/17 01:31:40;;;;;;;9.52;5.38;;;12.50;96.20;;;;;;4992616;28;20275;-71
2022/03/17 01:34:08;;;;;;;14.57;4.57;;;12.50;99.90;;;;;;4993198;28;20217;-71
2022/03/17 01:36:35;;;;;;;7.57;4.10;;;12.50;99.90;;;;;;4995190;28;20746;-70
2022/03/17 01:39:02;;;;;;;8.68;4.30;;;12.50;99.90;;;;;;4991877;28;20640;-70
2022/03/17 01:41:29;;;;;;;9.55;4.05;;;12.50;99.90;;;;;;4991733;28;20286;-71
2022/03/17 01:43:56;;;;;;;11.55;4.60;;;12.50;99.90;;;;;;4991673;28;20217;-71
2022/03/17 01:46:23;;;;;;;12.70;3.83;;;12.50;99.90;;;;;;4991794;28;20451;-70
2022/03/17 01:48:50;;;;;;;14.82;3.88;;;12.50;99.90;;;;;;4991786;28;20279;-70
2022/03/17 01:51:18;;;;;;;7.53;4.03;;;12.40;99.90;;;;;;4992485;28;20263;-71
2022/03/17 01:53:46;;;;;;;8.40;4.32;;;12.40;99.90;;;;;;4991980;28;20212;-71
2022/03/17 01:56:13;;;;;;;15.13;4.80;;;12.40;99.90;;;;;;4992210;28;20209;-70
2022/03/17 01:58:41;;;;;;;16.50;5.55;;;12.40;99.90;;;;;;4991592;28;20217;-69
2022/03/17 02:01:09;;;;;;;10.88;3.72;;;12.40;99.90;;;;;;4992139;28;20240;-70
2022/03/17 02:03:37;;;;;;;13.70;3.90;;;12.40;99.90;;;;;;4992113;28;20710;-70
2022/03/17 02:06:04;;;;;;;15.18;3.53;;;12.40;99.90;;;;;;4991528;28;20214;-70
2022/03/17 02:08:32;;;;;;;14.15;4.10;;;12.50;99.90;;;;;;4991595;28;20209;-70
2022/03/17 02:13:43;;;;;;;21.65;5.55;;;12.40;99.90;;;;;;4991748;28;20339;-69
2022/03/17 02:16:10;;;;;;;6.57;3.30;;;12.40;99.90;;;;;;4991960;28;20205;-69
2022/03/17 02:18:37;;;;;;;8.18;4.40;;;12.40;99.90;;;;;;4991918;28;20209;-70
2022/03/17 02:21:05;;;;;;;10.10;3.67;;;12.40;99.90;;;;;;4991443;28;20283;-70
2022/03/17 02:26:20;;;;;;;9.65;3.80;;;12.40;99.90;;;;;;4991918;28;20703;-70
2022/03/17 02:28:47;;;;;;;10.48;3.60;;;12.30;99.90;;;;;;4991303;28;20215;-70
2022/03/17 02:31:14;;;;;;;11.27;3.10;;;12.20;99.90;;;;;;4991659;28;20213;-70
2022/03/17 02:33:42;;;;;;;13.80;5.40;;;12.20;99.90;;;;;;4990835;28;20271;-70
2022/03/17 02:36:09;;;;;;;8.82;3.92;;;12.20;99.90;;;;;;4991437;28;20209;-70
2022/03/17 02:38:38;;;;;;;11.15;3.90;;;12.30;99.90;;;;;;4990901;28;20263;-70
2022/03/17 02:41:05;;;;;;;9.65;4.20;;;12.30;99.90;;;;;;4991747;28;20244;-70
2022/03/17 02:43:32;;;;;;;9.65;5.40;;;12.30;99.90;;;;;;4991368;28;20750;-70
2022/03/17 02:45:59;;;;;;;11.60;4.57;;;12.30;99.90;;;;;;4991153;28;21058;-71
2022/03/17 02:48:26;;;;;;;4.72;3.50;;;12.30;99.90;;;;;;4991000;28;20216;-71
2022/03/17 02:50:53;;;;;;;5.95;3.65;;;12.30;99.90;;;;;;4991143;28;20205;-70
2022/03/17 02:53:20;;;;;;;9.88;4.53;;;12.40;99.90;;;;;;4991382;28;20208;-70
2022/03/17 02:55:48;;;;;;;5.55;3.88;;;12.40;99.90;;;;;;4989999;28;20213;-70
2022/03/17 02:58:15;;;;;;;7.20;2.97;;;12.30;99.90;;;;;;4990846;28;20204;-70
2022/03/17 03:00:43;;;;;;;6.82;3.42;;;12.20;99.90;;;;;;4991253;28;20271;-71
2022/03/17 03:03:10;;;;;;;4.82;3.28;;;12.20;99.90;;;;;;4991387;28;20205;-71
2022/03/17 03:05:38;;;;;;;4.97;3.25;;;12.30;99.90;;;;;;4992078;28;20636;-71
2022/03/17 03:08:05;;;;;;;6.20;3.78;;;12.20;99.90;;;;;;4990805;28;20672;-75
2022/03/17 03:10:33;;;;;;;10.30;3.60;;;12.30;99.90;;;;;;4990872;28;20259;-72
2022/03/17 03:13:02;;;;;;;7.68;3.60;;;12.30;99.90;;;;;;4990221;28;20693;-72
2022/03/17 03:15:29;;;;;;;7.00;3.00;;;12.30;99.90;;;;;;4991379;28;20213;-71
2022/03/17 03:17:56;;;;;;;8.85;3.78;;;12.20;99.90;;;;;;4990446;28;20212;-71
2022/03/17 03:20:23;;;;;;;7.10;3.95;;;12.30;99.90;;;;;;4989925;28;20708;-71
2022/03/17 03:22:51;;;;;;;5.70;3.28;;;12.20;99.90;;;;;;4989962;28;20275;-70
2022/03/17 03:25:18;;;;;;;6.57;3.38;;;12.20;99.90;;;;;;4989898;28;20680;-70
2022/03/17 03:27:45;;;;;;;6.53;4.18;;;12.30;99.90;;;;;;4993752;28;20243;-70
2022/03/17 03:30:14;;;;;;;4.40;3.30;;;12.30;99.90;;;;;;4990848;28;20221;-70
2022/03/17 03:32:44;;;;;;;5.20;3.47;;;12.30;99.90;;;;;;4992891;28;20268;-70
2022/03/17 03:37:57;;;;;;;9.77;3.28;;;12.40;99.90;;;;;;4990236;28;20291;-70
2022/03/17 03:40:25;;;;;;;4.32;3.17;;;12.40;99.90;;;;;;4989625;28;20240;-70
2022/03/17 03:42:52;;;;;;;8.43;3.20;;;12.40;99.90;;;;;;4990079;28;20673;-70
2022/03/17 03:45:21;;;;;;;4.60;3.20;;;12.40;99.90;;;;;;4990124;28;20208;-70
2022/03/17 03:47:48;;;;;;;5.07;3.75;;;12.30;99.90;;;;;;4989187;28;20263;-71
2022/03/17 03:50:15;;;;;;;7.32;3.85;;;12.30;99.90;;;;;;4989896;28;20216;-71
2022/03/17 03:52:43;;;;;;;8.52;3.92;;;12.30;99.90;;;;;;4990404;28;20213;-71
2022/03/17 03:55:11;;;;;;;5.03;3.22;;;12.30;99.90;;;;;;4994381;28;20205;-71
2022/03/17 03:57:38;;;;;;;3.90;3.30;;;12.20;99.90;;;;;;4990663;28;20216;-70
2022/03/17 04:00:17;;;;;;;6.25;3.63;;;12.20;99.90;;;;;;4990222;28;20664;-70
2022/03/17 04:02:46;;;;;;;4.88;3.08;;;12.20;99.90;;;;;;4989624;28;20213;-71
2022/03/17 04:05:13;;;;;;;8.30;3.80;;;12.20;99.90;;;;;;4990527;28;20219;-70
2022/03/17 04:07:41;;;;;;;7.93;3.33;;;12.10;99.90;;;;;;4990928;28;20209;-72
2022/03/17 04:10:08;;;;;;;7.85;3.28;;;12.20;99.90;;;;;;4991247;28;20412;-70
2022/03/17 04:12:36;;;;;;;7.38;3.38;;;12.20;99.90;;;;;;4990837;28;20356;-70
2022/03/17 04:15:03;;;;;;;8.32;3.65;;;12.20;99.90;;;;;;4989952;28;20208;-70
2022/03/17 04:17:30;;;;;;;5.40;3.58;;;12.20;99.90;;;;;;4990072;28;20213;-72
2022/03/17 04:19:59;;;;;;;10.90;4.60;;;12.20;99.90;;;;;;4991047;28;20252;-72
2022/03/17 04:22:28;;;;;;;5.97;3.72;;;12.30;99.90;;;;;;4990079;28;20236;-72
2022/03/17 04:24:56;;;;;;;11.40;4.85;;;12.20;99.90;;;;;;4993423;28;20262;-71
2022/03/17 04:27:23;;;;;;;5.68;3.72;;;12.20;99.90;;;;;;5008412;28;20266;-71
2022/03/17 04:29:50;;;;;;;8.10;4.22;;;12.10;99.90;;;;;;4990302;28;20212;-71
2022/03/17 04:32:17;;;;;;;14.30;5.55;;;12.10;99.90;;;;;;4989733;28;20213;-71
2022/03/17 04:34:44;;;;;;;9.88;4.97;;;12.10;99.90;;;;;;4990492;28;20263;-71
2022/03/17 04:37:12;;;;;;;11.20;5.20;;;12.10;99.90;;;;;;5004497;28;20251;-70
2022/03/17 04:39:39;;;;;;;11.23;5.38;;;12.20;99.90;;;;;;4996187;28;20208;-71
2022/03/17 04:42:07;;;;;;;7.15;5.65;;;12.30;99.90;;;;;;4990968;28;20233;-73
2022/03/17 04:44:33;;;;;;;15.73;5.65;;;12.30;99.90;;;;;;4990778;28;20217;-72
2022/03/17 04:47:00;;;;;;;12.45;5.13;;;12.20;99.90;;;;;;4989917;28;20694;-72
2022/03/17 04:49:27;;;;;;;9.20;5.72;;;12.20;99.90;;;;;;4990307;28;20220;-72
2022/03/17 04:51:54;;;;;;;11.23;5.95;;;12.20;99.90;;;;;;4989299;28;20673;-72
2022/03/17 04:54:23;;;;;;;15.80;5.85;;;12.20;99.90;;;;;;4997635;28;20217;-72
2022/03/17 04:56:50;;;;;;;13.27;6.35;;;12.20;99.90;;;;;;4987983;28;20213;-72
2022/03/17 04:59:19;;;;;;;19.42;6.32;;;12.30;99.90;;;;;;4988711;28;20739;-72
2022/03/17 05:01:46;;;;;;;13.73;5.85;;;12.30;99.90;;;;;;4992222;28;20232;-72
2022/03/17 05:04:12;;;;;;;18.13;7.32;;;12.30;99.90;;;;;;4992769;28;20255;-72
2022/03/17 05:06:39;;;;;;;16.65;6.25;;;12.20;99.90;;;;;;4992674;28;20217;-72
2022/03/17 05:09:06;;;;;;;14.38;6.90;;;12.20;99.90;;;;;;4992862;28;20209;-72
2022/03/17 05:11:35;;;;;;;13.02;6.00;;;12.20;99.90;;;;;;4992831;28;20279;-72
2022/03/17 05:14:02;;;;;;;19.08;7.50;;;12.20;99.90;;;;;;4992295;28;20218;-72
2022/03/17 05:16:29;;;;;;;16.05;6.53;;;12.10;99.90;;;;;;4992674;28;20263;-72
2022/03/17 05:18:56;;;;;;;18.80;8.55;;;12.10;99.90;;;;;;4992799;28;20208;-72
2022/03/17 05:21:23;;;;;;;24.33;6.78;;;12.10;99.90;;;;;;4992256;28;20241;-72
2022/03/17 05:23:50;;;;;;;15.43;7.38;;;12.20;99.90;;;;;;4992016;28;20242;-73
2022/03/17 05:26:19;;;;;;;19.27;7.70;;;12.20;99.90;;;;;;4992535;28;20216;-72
2022/03/17 05:28:47;;;;;;;22.08;8.00;;;12.20;99.90;;;;;;4991912;28;20255;-71
2022/03/17 05:31:14;;;;;;;23.23;9.40;;;12.20;99.90;;;;;;4992412;28;20291;-72
2022/03/17 05:33:41;;;;;;;20.13;9.68;;;12.20;99.90;;;;;;4991628;28;20571;-72
2022/03/17 05:36:08;;;;;;;16.83;8.10;;;12.20;99.90;;;;;;4992385;28;20271;-72
2022/03/17 05:38:35;;;;;;;22.45;7.70;;;12.20;99.90;;;;;;4992301;28;20216;-72
2022/03/17 05:41:03;;;;;;;25.30;7.72;;;12.20;99.90;;;;;;4991114;28;20236;-74
2022/03/17 05:43:30;;;;;;;16.17;7.43;;;12.20;99.90;;;;;;4991633;28;20645;-73
2022/03/17 05:45:58;;;;;;;17.45;8.95;;;12.20;99.90;;;;;;4992034;28;20212;-71
2022/03/17 05:48:25;;;;;;;17.77;7.28;;;12.20;99.90;;;;;;4991716;28;20688;-72
2022/03/17 05:50:52;;;;;;;26.50;10.35;;;12.10;99.90;;;;;;4991390;28;20213;-70
2022/03/17 05:53:19;;;;;;;17.00;9.32;;;12.20;99.90;;;;;;4992155;28;20226;-72
2022/03/17 05:55:46;;;;;;;21.13;7.60;;;12.30;99.90;;;;;;4991293;28;20260;-72
2022/03/17 05:58:13;;;;;;;24.17;8.02;;;12.30;99.90;;;;;;4992265;28;20209;-72
2022/03/17 06:00:40;;;;;;;21.45;8.52;;;12.30;99.90;;;;;;4991522;28;20209;-71
2022/03/17 06:03:09;;;;;;;15.60;8.30;;;12.30;99.90;;;;;;4992842;28;20263;-71
2022/03/17 06:05:36;;;;;;;17.83;8.45;;;12.30;99.90;;;;;;4991935;28;20627;-71
2022/03/17 06:08:03;;;;;;;21.38;7.60;;;12.40;99.90;;;;;;4991628;28;20216;-72
2022/03/17 06:10:32;;;;;;;23.73;8.07;;;12.30;99.90;;;;;;4991799;28;20217;-72
2022/03/17 06:13:01;;;;;;;16.70;9.25;;;12.30;99.90;;;;;;4989855;28;20303;-71
2022/03/17 06:15:28;;;;;;;18.23;8.98;;;12.30;99.90;;;;;;4991553;28;20246;-71
2022/03/17 06:17:57;;;;;;;23.48;8.23;;;12.30;99.90;;;;;;5006540;28;20577;-71
2022/03/17 06:20:26;;;;;;;19.92;8.45;;;12.30;99.90;;;;;;5006486;28;20668;-71
2022/03/17 06:22:55;;;;;;;18.08;8.02;;;12.30;99.90;;;;;;5006835;28;20329;-71
2022/03/17 06:25:25;;;;;;;17.23;7.85;;;12.30;99.90;;;;;;5012428;28;20207;-72
2022/03/17 06:27:52;;;;;;;22.65;11.60;;;12.30;99.90;;;;;;4997390;28;20213;-72
2022/03/17 06:30:21;;;;;;;21.23;10.23;;;12.40;99.90;;;;;;5012336;28;20254;-71
2022/03/17 06:32:48;;;;;;;23.92;8.70;;;12.40;99.90;;;;;;5011598;28;20220;-71
2022/03/17 06:35:17;;;;;;;21.88;8.27;;;12.40;99.90;;;;;;5005270;28;20270;-72
2022/03/17 06:37:47;;;;;;;29.98;10.80;;;12.30;99.90;;;;;;5011766;28;20579;-70
2022/03/17 06:40:15;;;;;;;28.52;10.40;;;12.30;99.90;;;;;;5012245;28;20208;-71
2022/03/17 06:42:42;;;;;;;17.48;8.88;;;12.30;99.90;;;;;;5011402;28;20236;-71
2022/03/17 06:45:10;;;;;;;27.48;10.07;;;12.30;99.90;;;;;;5011728;28;20208;-70
2022/03/17 06:47:38;;;;;;;22.20;10.73;;;12.30;99.90;;;;;;5011964;28;20214;-70
2022/03/17 06:50:05;;;;;;;21.13;9.57;;;12.30;99.90;;;;;;5011863;28;20235;-70
2022/03/17 06:52:32;;;;;;;20.25;10.30;;;12.30;99.90;;;;;;5012007;28;20262;-70
2022/03/17 06:55:01;;;;;;;25.90;8.85;;;12.30;99.90;;;;;;5011325;28;20204;-70
2022/03/17 06:57:28;;;;;;;24.27;10.95;;;12.40;99.90;;;;;;5011553;28;20212;-71
2022/03/17 06:59:55;;;;;;;24.35;9.88;;;12.50;99.90;;;;;;5011465;28;20266;-70
2022/03/17 07:02:22;;;;;;;26.25;9.68;;;12.50;99.90;;;;;;5011838;28;20592;-70
2022/03/17 07:04:49;;;;;;;20.40;10.05;;;12.50;99.90;;;;;;5011086;28;20623;-70
2022/03/17 07:07:16;;;;;;;25.95;10.52;;;12.50;99.90;;;;;;5007112;28;20209;-71
2022/03/17 07:09:43;;;;;;;29.60;11.38;;;12.60;99.90;;;;;;5009636;28;20208;-71
2022/03/17 07:12:12;;;;;;;26.77;9.23;;;12.60;99.90;;;;;;5003184;28;20258;-72
2022/03/17 07:14:40;;;;;;;24.83;8.85;;;12.60;99.90;;;;;;5005752;28;20258;-72
2022/03/17 07:17:07;;;;;;;26.13;11.35;;;12.70;99.90;;;;;;5005218;28;20239;-73
2022/03/17 07:19:34;;;;;;;22.50;9.50;;;12.70;99.90;;;;;;5000538;28;20656;-71
2022/03/17 07:22:01;;;;;;;20.77;10.18;;;12.70;99.90;;;;;;5010975;28;20695;-71
2022/03/17 07:24:28;;;;;;;25.73;8.57;;;12.80;99.90;;;;;;4999546;28;20264;-74
2022/03/17 07:26:56;;;;;;;21.73;8.38;;;12.80;99.90;;;;;;4993831;28;20209;-72
2022/03/17 07:29:24;;;;;;;22.40;9.65;;;12.90;99.90;;;;;;5011333;28;20196;-71
2022/03/17 07:31:54;;;;;;;19.40;10.57;;;12.90;99.90;;;;;;4999791;28;20872;-71
2022/03/17 07:34:21;;;;;;;25.83;11.05;;;12.90;99.90;;;;;;4994681;28;20212;-70
2022/03/17 07:36:48;;;;;;;32.80;10.43;;;12.90;99.90;;;;;;4995091;28;20267;-70
2022/03/17 07:39:15;;;;;;;26.95;9.27;;;12.90;99.90;;;;;;5003221;28;20208;-70
2022/03/17 07:41:42;;;;;;;22.77;9.00;;;12.80;99.90;;;;;;5011177;28;20240;-70
2022/03/17 07:44:09;;;;;;;20.23;8.77;;;12.80;99.90;;;;;;5011567;28;20282;-71
2022/03/17 07:46:37;;;;;;;24.67;9.75;;;12.90;99.90;;;;;;5004004;28;20217;-72
2022/03/17 07:49:04;;;;;;;22.35;9.00;;;12.90;99.90;;;;;;5000914;28;20259;-71
2022/03/17 07:51:31;;;;;;;26.23;10.60;;;12.90;99.90;;;;;;5004425;28;20213;-71
2022/03/17 07:53:58;;;;;;;23.83;10.30;;;12.90;99.90;;;;;;5005883;28;20212;-73
2022/03/17 07:56:26;;;;;;;23.52;10.52;;;12.90;99.90;;;;;;5010201;28;20263;-71
2022/03/17 07:58:53;;;;;;;25.52;8.95;;;13.00;99.90;;;;;;5010751;28;20208;-69
2022/03/17 08:01:24;;;;;;;15.05;9.65;;;13.10;99.90;;;;;;5010151;28;20250;-71
2022/03/17 08:03:53;;;;;;;21.42;9.77;;;13.20;91.00;;;;;;4994862;28;20296;-71
2022/03/17 08:06:20;;;;;;;25.33;10.75;;;13.20;76.00;;;;;;4991675;28;20571;-70
2022/03/17 08:08:47;;;;;;;15.60;8.95;;;13.20;61.50;;;;;;5004146;28;20263;-70
2022/03/17 08:11:14;;;;;;;18.77;9.57;;;13.30;88.10;;;;;;5000847;28;20217;-70
2022/03/17 08:13:41;;;;;;;17.17;9.52;;;13.40;74.10;;;;;;5006462;28;20222;-69
2022/03/17 08:16:10;;;;;;;21.65;9.68;;;13.40;49.80;;;;;;5011069;28;20200;-69
2022/03/17 08:18:38;;;;;;;18.83;9.45;;;13.40;46.60;;;;;;5004735;28;20213;-70
2022/03/17 08:21:07;;;;;;;25.92;9.50;;;13.40;45.80;;;;;;4991361;28;20258;-72
2022/03/17 08:23:34;;;;;;;15.35;9.70;;;13.50;36.00;;;;;;4991604;28;20236;-70
2022/03/17 08:26:01;;;;;;;23.30;8.23;;;13.50;32.50;;;;;;4990956;28;20215;-70
2022/03/17 08:28:29;;;;;;;22.50;9.32;;;13.50;27.40;;;;;;4993012;28;20208;-70
2022/03/17 08:30:56;;;;;;;16.08;9.85;;;13.50;26.80;;;;;;4993774;28;20208;-69
2022/03/17 08:33:23;;;;;;;34.70;21.80;;;13.50;22.60;;;;;;4999548;28;20216;-70
2022/03/17 08:35:50;;;;;;;22.92;9.57;;;13.60;22.60;;;;;;5008255;28;20313;-70
2022/03/17 08:38:19;;;;;;;22.08;11.48;;;13.60;21.30;;;;;;5013593;28;20208;-73
2022/03/17 08:40:46;;;;;;;20.30;8.95;;;13.60;17.10;;;;;;5013727;28;20668;-72
2022/03/17 08:43:13;;;;;;;56.78;35.28;;;13.50;18.10;;;;;;5014763;28;20658;-73
2022/03/17 08:51:11;;;;;;;15.20;8.80;;;13.80;1.00;;;;;;5010706;28;20215;-78
2022/03/17 08:53:40;;;;;;;15.65;8.85;;;13.70;1.00;;;;;;5010013;28;20212;-72
2022/03/17 08:56:07;;;;;;;42.22;26.20;;;13.70;6.40;;;;;;4994974;28;20209;-73
2022/03/17 08:58:35;;;;;;;98.07;65.20;;;13.80;1.00;;;;;;4994724;28;20260;-72
2022/03/17 09:01:02;;;;;;;83.43;58.72;;;13.80;1.00;;;;;;4994553;28;20216;-71
2022/03/17 09:03:30;;;;;;;30.50;20.42;;;13.80;1.00;;;;;;4994671;28;20270;-71
2022/03/17 09:05:59;;;;;;;18.08;9.55;;;13.80;1.00;;;;;;4994195;28;20212;-72
2022/03/17 09:08:26;;;;;;;17.67;8.27;;;13.90;1.00;;;;;;5000929;28;20208;-72
2022/03/17 09:10:56;;;;;;;11.18;7.25;;;14.00;1.00;;;;;;5001794;28;20212;-71
2022/03/17 09:13:25;;;;;;;19.77;9.95;;;14.20;1.00;;;;;;5006183;28;20213;-76
2022/03/17 09:15:53;;;;;;;16.25;8.85;;;14.30;1.00;;;;;;4997341;28;20306;-71
2022/03/17 09:18:21;;;;;;;16.55;10.85;;;14.30;1.00;;;;;;5014054;28;20307;-75
2022/03/17 09:20:49;;;;;;;30.02;18.70;;;14.30;1.00;;;;;;5013420;28;20207;-73
2022/03/17 09:23:16;;;;;;;15.15;9.05;;;14.20;1.00;;;;;;5010177;28;20232;-73
2022/03/17 09:25:43;;;;;;;16.60;9.85;;;14.10;1.00;;;;;;4993834;28;20307;-73
2022/03/17 09:28:12;;;;;;;14.80;9.65;;;14.00;1.00;;;;;;4998468;28;20208;-70
2022/03/17 09:30:39;;;;;;;18.27;7.80;;;14.00;1.00;;;;;;4997625;28;20754;-75
2022/03/17 09:33:06;;;;;;;13.07;7.28;;;14.00;1.00;;;;;;5000821;28;20254;-71
2022/03/17 09:35:35;;;;;;;21.20;10.43;;;14.10;1.00;;;;;;5013538;28;20239;-71
2022/03/17 09:38:05;;;;;;;18.73;10.52;;;14.20;1.00;;;;;;4998160;28;20307;-75
2022/03/17 09:40:32;;;;;;;36.40;11.77;;;14.20;1.00;;;;;;4994130;28;20801;-70
2022/03/17 09:45:49;;;;;;;26.65;15.95;;;14.50;1.00;;;;;;4993707;28;20590;-71
2022/03/17 09:48:16;;;;;;;47.88;27.73;;;14.90;1.00;;;;;;5004918;28;20224;-70
2022/03/17 09:50:43;;;;;;;34.05;18.98;;;15.30;1.00;;;;;;5012797;28;20266;-71
2022/03/17 09:53:10;;;;;;;37.58;15.50;;;15.30;1.00;;;;;;5013043;28;20205;-71
2022/03/17 09:55:41;;;;;;;43.22;27.40;;;15.50;1.00;;;;;;5013552;28;20734;-74
2022/03/17 09:58:08;;;;;;;91.75;69.93;;;15.20;1.00;;;;;;5011282;28;20212;-71
2022/03/17 10:00:52;;;;;;;37.72;25.60;;;15.00;1.00;;;;;;5005656;28;20750;-71
2022/03/17 10:03:25;;;;;;;35.50;23.52;;;15.10;1.00;;;;;;4994154;28;20290;-75
2022/03/17 10:05:53;;;;;;;79.80;45.50;;;15.20;1.00;;;;;;5012429;28;20295;-72
2022/03/17 10:08:23;;;;;;;63.83;41.08;;;15.30;1.00;;;;;;5013159;28;20569;-75
2022/03/17 10:10:52;;;;;;;33.80;20.77;;;15.50;1.00;;;;;;5001263;28;20212;-72
2022/03/17 10:13:21;;;;;;;34.35;20.58;;;15.40;1.00;;;;;;4995582;28;20205;-72
2022/03/17 10:16:05;;;;;;;25.55;13.48;;;15.40;1.00;;;;;;5000675;28;20209;-75
2022/03/17 10:18:37;;;;;;;46.55;31.33;;;15.60;1.00;;;;;;4997630;28;20220;-71
2022/03/17 10:21:09;;;;;;;31.67;22.85;;;15.60;1.00;;;;;;5004100;28;20219;-70
2022/03/17 10:23:44;;;;;;;21.83;7.53;;;15.70;1.00;;;;;;5013214;28;20699;-74
2022/03/17 10:26:11;;;;;;;16.58;8.60;;;15.70;1.00;;;;;;5012684;28;20208;-74
2022/03/17 10:28:40;;;;;;;18.67;7.97;;;15.50;1.00;;;;;;4998784;28;20671;-73
2022/03/17 10:31:08;;;;;;;12.27;7.32;;;15.50;1.00;;;;;;5012488;28;20243;-76
2022/03/17 10:33:36;;;;;;;22.13;10.02;;;15.50;1.00;;;;;;5009923;28;20223;-76
2022/03/17 10:36:19;;;;;;;14.85;7.45;;;15.50;1.00;;;;;;5007234;28;20208;-76
2022/03/17 10:38:46;;;;;;;19.70;8.13;;;15.60;1.00;;;;;;5001282;28;20244;-76
2022/03/17 10:41:13;;;;;;;17.33;7.70;;;15.40;1.00;;;;;;4992976;28;20212;-74
2022/03/17 10:43:42;;;;;;;14.55;8.40;;;15.50;1.00;;;;;;4992873;28;20295;-76
2022/03/17 10:46:11;;;;;;;37.65;22.30;;;15.50;1.00;;;;;;4992881;28;20300;-75
2022/03/17 10:51:35;;;;;;;32.97;12.75;;;15.50;1.00;;;;;;5109141;27;20599;-74
2022/03/17 10:54:08;;;;;;;65.93;40.80;;;15.70;1.00;;;;;;5103587;28;20212;-76
2022/03/17 10:56:36;;;;;;;89.90;50.92;;;15.30;1.00;;;;;;5092357;28;20213;-77
2022/03/17 10:59:03;;;;;;;35.13;18.75;;;15.10;1.00;;;;;;5098210;28;20205;-73
2022/03/17 11:01:38;;;;;;;37.63;16.52;;;14.90;1.00;;;;;;5099401;28;20282;-76
2022/03/17 11:04:06;;;;;;;24.27;11.55;;;14.80;1.00;;;;;;5092335;28;20192;-76
2022/03/17 11:06:35;;;;;;;21.90;9.10;;;14.80;1.00;;;;;;5108240;28;20205;-75
2022/03/17 11:09:02;;;;;;;15.18;8.93;;;14.70;1.00;;;;;;5108014;28;20223;-71
2022/03/17 11:11:30;;;;;;;17.65;9.43;;;14.70;1.00;;;;;;5108196;28;20232;-73
2022/03/17 11:13:59;;;;;;;23.95;12.65;;;14.70;1.00;;;;;;5107728;28;20557;-72
2022/03/17 11:16:31;;;;;;;22.00;13.35;;;15.00;1.00;;;;;;5103721;28;20205;-71
2022/03/17 11:18:58;;;;;;;29.77;11.90;;;15.50;1.00;;;;;;5106995;28;20204;-71
2022/03/17 11:21:30;;;;;;;18.23;11.77;;;15.30;1.00;;;;;;5107719;28;20630;-71
2022/03/17 11:24:04;;;;;;;37.83;23.95;;;15.40;1.00;;;;;;5107310;28;20205;-71
2022/03/17 11:26:35;;;;;;;23.30;12.32;;;15.30;1.00;;;;;;5107713;28;20223;-71
2022/03/17 11:29:07;;;;;;;21.52;10.52;;;15.30;1.00;;;;;;5107533;28;20208;-71
2022/03/17 11:31:58;;;;;;;14.38;8.23;;;15.20;1.00;;;;;;5093041;28;20237;-70
2022/03/17 11:35:05;;;;;;;14.57;7.82;;;14.90;1.00;;;;;;5087638;28;20197;-71
2022/03/17 11:37:33;;;;;;;24.63;9.32;;;15.00;1.00;;;;;;5064342;28;20202;-72
2022/03/17 11:40:08;;;;;;;17.02;9.30;;;15.20;1.00;;;;;;5089879;28;20212;-70
2022/03/17 11:42:42;;;;;;;16.17;8.93;;;15.30;1.00;;;;;;5107671;28;20211;-70
2022/03/17 11:45:11;;;;;;;15.82;8.80;;;15.40;1.00;;;;;;5098712;28;20589;-72
2022/03/17 11:47:43;;;;;;;14.82;8.55;;;15.40;1.00;;;;;;5099477;28;20676;-72
2022/03/17 11:50:24;;;;;;;19.73;9.43;;;15.50;1.00;;;;;;5107151;28;20225;-70
2022/03/17 11:52:52;;;;;;;21.33;9.95;;;15.60;1.00;;;;;;5106631;28;20258;-71
2022/03/17 11:55:36;;;;;;;16.08;8.98;;;15.30;1.00;;;;;;5106482;28;20710;-71
2022/03/17 11:58:32;;;;;;;19.95;10.30;;;15.40;1.00;;;;;;5106991;28;20209;-72
2022/03/17 12:01:11;;;;;;;18.02;9.13;;;15.40;1.00;;;;;;5100125;28;20225;-70
2022/03/17 12:03:45;;;;;;;17.50;9.93;;;15.50;1.00;;;;;;5084358;28;20205;-72
2022/03/17 12:06:18;;;;;;;19.75;9.43;;;15.80;1.00;;;;;;5073682;28;20201;-75
2022/03/17 12:08:55;;;;;;;19.20;10.80;;;16.10;1.00;;;;;;5072021;28;20665;-72
2022/03/17 12:11:25;;;;;;;20.65;9.32;;;16.20;1.00;;;;;;5081847;28;20623;-73
2022/03/17 12:14:16;;;;;;;14.07;8.02;;;16.10;1.00;;;;;;5093820;28;20258;-73
2022/03/17 12:16:45;;;;;;;17.42;10.07;;;15.80;1.00;;;;;;5088598;28;20236;-72
2022/03/17 12:19:25;;;;;;;17.80;8.98;;;16.10;1.00;;;;;;5092164;28;20668;-71
2022/03/17 12:22:09;;;;;;;17.00;9.80;;;16.40;1.00;;;;;;5092814;28;20225;-70
2022/03/17 12:24:39;;;;;;;17.10;9.98;;;16.60;1.00;;;;;;5085430;28;20258;-70
2022/03/17 12:27:12;;;;;;;21.75;10.15;;;16.80;1.00;;;;;;5099853;28;20202;-72
2022/03/17 12:29:39;;;;;;;19.20;11.80;;;16.50;1.00;;;;;;5084252;28;20210;-74
2022/03/17 12:32:10;;;;;;;14.35;8.27;;;16.70;1.00;;;;;;5089958;28;20283;-73
2022/03/17 12:34:38;;;;;;;24.60;10.73;;;17.00;1.00;;;;;;5093146;28;20233;-70
2022/03/17 12:37:06;;;;;;;17.20;9.82;;;17.00;1.00;;;;;;5092653;28;20258;-73
2022/03/17 12:39:34;;;;;;;12.70;10.13;;;16.90;1.00;;;;;;5093000;28;20293;-76
2022/03/17 12:42:02;;;;;;;15.18;8.77;;;16.70;1.00;;;;;;5091190;28;20206;-75
2022/03/17 12:44:30;;;;;;;14.20;7.70;;;16.90;1.00;;;;;;5092195;28;20241;-71
2022/03/17 12:46:57;;;;;;;20.17;8.35;;;16.90;1.00;;;;;;5091890;28;20737;-72
2022/03/17 12:49:24;;;;;;;15.73;9.43;;;17.10;1.00;;;;;;5092208;28;20557;-74
2022/03/17 12:51:51;;;;;;;14.25;7.63;;;17.40;1.00;;;;;;5091744;28;20263;-72
2022/03/17 12:54:19;;;;;;;14.05;8.35;;;17.50;1.00;;;;;;5092206;28;20205;-74
2022/03/17 12:56:51;;;;;;;18.95;9.52;;;17.10;1.00;;;;;;5091651;28;20657;-71
2022/03/17 12:59:19;;;;;;;12.30;8.35;;;16.40;1.00;;;;;;5091641;28;20198;-71
2022/03/17 13:01:49;;;;;;;11.15;8.35;;;16.50;1.00;;;;;;5091960;28;20250;-72
2022/03/17 13:04:16;;;;;;;19.95;10.32;;;16.70;1.00;;;;;;5092139;28;20202;-72
2022/03/17 13:06:55;;;;;;;26.23;8.52;;;16.70;1.00;;;;;;5091904;28;20250;-71
2022/03/17 13:09:29;;;;;;;11.20;7.15;;;16.60;1.00;;;;;;5084022;28;20255;-71